Caliente, Nevada Weather observations

Data are for observation ending at time listed.
 Day   Time    Ave.   Ave.  Ave.  Vector   Max.   Stn.    Total    Solar   Ave.  
  of    of     Air    Rel.  Wind   Wind    Wind   Baro.  Precip.   Rad.    Soil  
Year   Day     Temp.  Hum.  Speed  Dir.    Gust   Pres.                    Temp. 
2014   (PST)    F      %     mph   deg.    mph     mb.     in.     W/m2     F   
------------------------------------------------------------------------------
 208    8:20   78.6    33    1.3   155      3.1   872.0    0.00     527    81.7
 208    8:30   79.0    33    1.6   152      3.4   871.9    0.00     543    81.8
 208    8:40   80.8    32    1.2   156      3.4   871.8    0.00     564    82.0
 208    8:50   81.5    32    1.4   148      3.7   871.7    0.00     583    82.2
 208    9:00   82.5    29    1.3   141      2.3   871.7    0.00     603    82.4
 208    9:10   84.4    26    0.9   276      3.9   871.6    0.00     627    82.6
 208    9:20   85.7    25    1.9   269      4.2   871.5    0.00     473    82.7
 208    9:30   83.7    29    1.2   196      2.7   871.4    0.00     132    82.9
 208    9:40   83.4    31    0.7   179      1.4   871.3    0.00     618    83.1
 208    9:50   87.9    22    1.4   296      3.3   871.1    0.00     717    83.3
 208   10:00   88.9    23    1.2    40      3.5   871.0    0.00     357    83.4
 208   10:10   87.2    25    1.6   110      3.8   870.8    0.00     216    83.6
 208   10:20   86.6    28    0.9   115      1.5   870.7    0.00     465    83.7
 208   10:30   88.8    26    0.6   114      1.5   870.6    0.00     448    83.9
 208   10:40   90.8    22    0.5    36      3.3   870.5    0.00     754    84.1
 208   10:50   93.1    20    0.3    31      2.5   870.3    0.00     808    84.3
 208   11:00   93.0    18    1.3   251      6.9   870.2    0.00     754    84.4
 208   11:10   91.6    18    1.3   252      6.5   870.0    0.00     324    84.6
 208   11:20   93.1    18    0.8    64      4.1   869.9    0.00     642    84.8
 208   11:30   92.9    17    0.9    71      3.7   869.8    0.00     688    85.1
 208   11:40   94.9    17    0.3   244      3.1   869.7    0.00     837    85.3
 208   11:50   94.6    17    1.1   258      5.0   869.6    0.00     647    85.6
 208   12:00   92.4    19    2.1   135      6.6   869.5    0.00     225    86.0
 208   12:10   91.8    19    0.9   142      5.2   869.4    0.00     297    86.4
 208   12:20   93.5    18    0.5   161      3.3   869.5    0.00     486    86.8
 208   12:30   93.4    18    1.2   114      4.7   869.3    0.00     469    87.3
 208   12:40   93.6    18    2.6   221      7.8   869.3    0.00     269    87.8
 208   12:50   91.2    21    5.5   104     11.4   869.3    0.00     136    88.2
 208   13:00   88.7    22    6.1   117     13.3   869.5    0.00      94    88.7
 208   13:10   84.1    31    5.8   148     14.5   869.5    0.00      84    88.9
 208   13:20   82.2    31    3.9   153     13.4   869.4    0.00      72    89.0
 208   13:30   82.5    27    6.0   233     16.3   869.8    0.00      57    89.0
 208   13:40   76.8    40    6.9   143     21.2   870.1    0.10      90    88.7
 208   13:50   74.4    52    3.4   255      7.7   869.8    0.00     105    87.4
 208   14:00   72.6    61    2.0   199      6.1   869.6    0.00     146    87.0
 208   14:10   75.9    56    2.3   211      4.7   869.5    0.00     536    86.9
 208   14:20   78.9    46    2.4   127      5.2   869.4    0.00     510    86.8
 208   14:30   81.6    39    2.0   207      6.7   869.5    0.00     410    87.0
 208   14:40   82.2    35    2.3   238      5.1   869.6    0.00     372    87.2
 208   14:50   82.9    36    2.5   227      8.8   869.3    0.00     458    87.5
 208   15:00   83.5    37    1.8   133      4.7   868.9    0.00     519    87.8
 208   15:10   84.1    34    1.8   150      4.2   868.6    0.00     433    88.1
 208   15:20   85.9    32    1.2   123      3.4   868.6    0.00     339    88.5
 208   15:30   85.0    35    1.5   175      3.5   868.7    0.00     186    88.9
 208   15:40   84.3    38    1.6   142      3.1   868.9    0.00      93    89.2
 208   15:50   83.2    36    6.3   133     14.5   869.0    0.00      45    89.3
 208   16:00   82.7    29    8.2   157     27.6   868.9    0.00      24    89.3
 208   16:10   86.0    22    5.3   247     16.6   868.4    0.00      14    89.1
 208   16:20   84.3    25    4.4   180     14.8   868.8    0.00       8    88.6
 208   16:30   78.0    41   19.5   252     32.4   869.3    0.00       5    88.1
 208   16:40   76.0    44    8.4   248     20.4   869.5    0.00       3    87.7
 208   16:50   76.6    42    4.1   254     11.6   870.2    0.00       3    87.4
 208   17:00   76.1    43    2.4   159      7.1   870.4    0.00       3    87.1
 208   17:10   76.3    43    2.2   250      6.3   870.3    0.00       3    86.9
 208   17:20   76.2    42    3.7   248      9.9   870.2    0.00       3    86.6
 208   17:30   76.0    42    2.4   238      7.4   870.3    0.00       3    86.4
 208   17:40   76.1    44    4.0   306      8.0   870.7    0.00       4    86.2
 208   17:50   76.2    42    6.0   244     13.9   871.1    0.00       3    86.0
 208   18:00   76.3    42    1.5   233      5.6   871.5    0.00       3    85.8
 208   18:10   75.2    50    1.2   254      5.0   871.7    0.00       4    85.6
 208   18:20   73.0    57    3.9   278      9.9   871.9    0.01       4    85.3
 208   18:30   72.4    53    4.5   277     11.2   872.0    0.00       5    85.0
 208   18:40   73.5    49    5.9   325     16.5   872.0    0.01       3    84.7
 208   18:50   72.6    53    3.5   285     11.0   872.2    0.00       3    84.3
 208   19:00   70.8    60    3.6   238     10.7   872.5    0.00       0    83.9
 208   19:10   71.6    56    2.8   246      7.8   872.8    0.00       0    83.5
 208   19:20   70.9    59    1.8   243      4.1   873.0    0.00       0    83.2
 208   19:30   70.4    61    2.8   246      5.8   872.6    0.00       0    82.9
 208   19:40   69.9    63    0.7   226      4.4   872.2    0.00       0    82.6
 208   19:50   70.1    61    1.7   239      4.5   872.2    0.00       0    82.5
 208   20:00   70.3    60    1.6   252      3.8   872.1    0.00       0    82.3
 208   20:10   69.8    62    0.9   285      2.3   872.1    0.00       0    82.1
 208   20:20   69.5    63    2.4   251      5.9   872.2    0.00       0    82.0
 208   20:30   69.3    64    2.2   262      4.3   872.3    0.00       0    81.9
 208   20:40   68.9    67    1.1   280      3.7   872.3    0.00       0    81.7
 208   20:50   68.6    69    1.5    86      3.0   872.4    0.00       0    81.6
 208   21:00   68.6    68    1.4    83      3.2   872.5    0.00       0    81.5
 208   21:10   69.0    68    1.8    82      2.6   872.5    0.00       0    81.4
 208   21:20   69.2    66    1.7    94      3.5   872.6    0.00       0    81.3
 208   21:30   69.4    66    1.1   250      2.3   872.6    0.00       0    81.2
 208   21:40   68.8    69    0.7   253      2.0   872.6    0.00       0    81.1
 208   21:50   69.1    69    0.6   238      2.0   872.6    0.00       0    81.0
 208   22:00   68.7    70    1.5   277      2.9   872.5    0.00       0    81.0
 208   22:10   68.9    70    0.5   254      1.5   872.4    0.00       0    80.9
 208   22:20   69.0    69    0.1   261      1.2   872.4    0.00       0    80.8
 208   22:30   68.9    71    0.7   308      1.7   872.4    0.00       0    80.7
 208   22:40   68.5    72    1.4   279      2.6   872.4    0.00       0    80.7
 208   22:50   68.4    72    0.6   229      1.5   872.2    0.00       0    80.6
 208   23:00   68.0    74    1.1   249      2.0   872.2    0.00       0    80.5
 208   23:10   67.8    74    2.2   248      3.8   872.2    0.00       0    80.4
 208   23:20   68.2    70    1.9   247      2.9   872.2    0.00       0    80.3
 208   23:30   68.1    71    0.7   230      1.9   872.2    0.00       0    80.2
 208   23:40   67.9    72    0.7   250      2.1   872.2    0.00       0    80.1
 208   23:50   67.4    74    1.0   122      1.8   872.2    0.00       0    80.0
 209    0:00   67.4    74    0.4   111      1.6   872.3    0.00       0    80.0
 209    0:10   68.0    74    0.6   259      1.6   872.4    0.00       0    79.9
 209    0:20   67.9    74    0.7   195      2.0   872.5    0.00       1    79.9
 209    0:30   67.5    75    1.2    99      2.0   872.7    0.00       0    79.8
 209    0:40   68.2    74    1.5   313      3.7   872.9    0.00       0    79.7
 209    0:50   68.1    75    1.2   123      3.1   873.1    0.00       0    79.7
 209    1:00   67.7    77    2.0   118      3.4   873.0    0.00       0    79.6
 209    1:10   67.9    73    1.1   106      2.9   872.9    0.00       0    79.6
 209    1:20   68.5    72    1.2   280      2.4   872.9    0.00       0    79.5
 209    1:30   67.8    76    4.1   247      7.7   873.0    0.00       0    79.5
 209    1:40   67.7    74    2.7   246      4.6   872.9    0.00       0    79.4
 209    1:50   67.8    74    1.9   158      3.9   872.7    0.00       0    79.3
 209    2:00   67.5    75    2.3   109      3.7   872.7    0.00       0    79.2
 209    2:10   68.0    72    2.0   114      4.7   872.6    0.00       0    79.1
 209    2:20   68.5    71    0.6   262      2.9   872.5    0.00       0    79.1
 209    2:30   68.2    74    1.5   318      3.1   872.5    0.00       0    79.1
 209    2:40   68.2    74    0.2    98      1.2   872.5    0.00       0    79.0
 209    2:50   68.1    75    0.2   198      1.2   872.5    0.00       0    78.9
 209    3:00   67.7    76    0.7   247      2.3   872.6    0.00       0    78.9
 209    3:10   67.8    75    0.4   250      1.8   872.6    0.00       0    78.8
 209    3:20   67.7    75    0.2   120      1.3   872.6    0.00       0    78.8
 209    3:30   67.5    75    0.6   131      1.1   872.5    0.00       0    78.8
 209    3:40   67.6    76    0.3   250      1.1   872.7    0.00       0    78.7
 209    3:50   67.6    76    1.6   248      2.4   872.7    0.00       0    78.7
 209    4:00   67.6    78    0.3   251      0.9   872.7    0.00       0    78.7
 209    4:10   67.5    78    0.4   136      1.5   872.7    0.00       0    78.6
 209    4:20   67.0    81    0.6   138      1.5   872.7    0.00       0    78.6
 209    4:30   66.8    80    0.7   135      1.0   872.7    0.00       0    78.5
 209    4:40   66.8    79    0.0   203      0.8   872.7    0.00       1    78.5
 209    4:50   67.0    80    1.1   271      2.3   872.7    0.00       0    78.4
 209    5:00   66.8    80    0.1   127      1.1   872.8    0.00       4    78.4
 209    5:10   66.7    80    0.7   229      1.9   872.9    0.00       9    78.4
 209    5:20   66.8    80    0.6   236      2.1   873.0    0.00      12    78.3
 209    5:30   66.8    80    0.1   200      0.9   873.0    0.00      14    78.3
 209    5:40   67.0    79    0.1   152      1.2   873.1    0.00      20    78.2
 209    5:50   67.0    78    0.7   138      1.6   873.2    0.00      29    78.2
 209    6:00   67.7    78    0.0    17      0.8   873.2    0.00      33    78.2
 209    6:10   67.7    76    0.5   131      1.5   873.3    0.00      34    78.2
 209    6:20   68.0    76    0.0   226      0.6   873.5    0.00      30    78.2
 209    6:30   68.3    76    0.7   300      2.0   873.6    0.00      30    78.2
 209    6:40   68.2    77    0.3   220      1.5   873.8    0.00      39    78.2
 209    6:50   68.1    78    0.0   167      0.5   874.0    0.00      48    78.1
 209    7:00   68.6    76    0.7   281      2.1   874.1    0.00      54    78.2
 209    7:10   68.4    79    1.1   248      2.4   874.3    0.00      50    78.2
 209    7:20   67.6    82    1.1   250      2.1   874.4    0.01      50    78.1
 209    7:30   67.4    83    0.7   293      2.2   874.5    0.00      47    78.0
 209    7:40   67.6    83    1.4   271      2.6   874.7    0.00      39    78.0
 209    7:50   67.2    84    0.6   198      1.9   874.9    0.01      36    77.9
 209    8:00   66.8    84    1.8   270      2.7   875.0    0.01      40    77.8
 209    8:10   66.6    85    1.3   270      2.6   875.0    0.01      36    77.6

Return to Caliente, Nevada graphs page.


Western Regional Climate Center,wrcc@dri.edu